Date,TemperatureHighF,TemperatureAvgF,TemperatureLowF,DewpointHighF,DewpointAvgF,DewpointLowF,HumidityHigh,HumidityAvg,HumidityLow,PressureMaxIn,PressureMinIn,WindSpeedMaxMPH,WindSpeedAvgMPH,GustSpeedMaxMPH,PrecipitationSumIn
2013-1-1,32.5,8.2,-3.1,23.3,-6.4,-16.2,78,51,35,30.10,29.84,0,0,0,0.00
2013-1-2,17.1,3.1,-17.9,5.9,-12.1,-35.5,61,48,21,30.40,29.99,0,0,0,0.00
2013-1-3,24.6,-1.4,-18.0,17.2,-16.3,-35.6,73,48,35,30.39,30.00,0,0,0,0.00
2013-1-4,32.5,30.8,24.8,24.0,20.7,16.4,75,66,62,30.01,29.87,12,8,16,0.00
2013-1-5,34.5,27.4,9.1,21.8,10.9,-3.4,72,51,29,30.39,29.95,10,4,15,0.00
2013-1-6,34.2,27.0,19.4,27.9,19.8,12.2,81,74,56,30.21,29.97,6,1,6,0.00
2013-1-7,28.2,21.1,10.6,16.7,11.6,1.1,73,66,57,30.53,30.18,0,0,0,0.00
2013-1-8,72.0,33.1,28.2,61.6,20.8,16.5,79,60,57,30.36,29.71,8,2,13,9.27
2013-1-9,43.5,36.5,26.6,28.9,23.5,14.2,72,59,46,29.97,29.51,13,6,17,0.09
2013-1-10,46.0,33.7,20.7,24.8,20.1,12.7,71,58,36,30.21,29.75,7,4,9,0.00
2013-1-11,43.2,34.5,19.4,36.1,23.1,11.5,83,64,41,30.15,29.62,4,2,4,0.05
2013-1-12,57.6,46.8,40.6,41.3,38.4,35.8,83,73,52,29.68,29.60,5,3,5,0.01
2013-1-13,60.6,51.3,42.6,48.1,43.5,36.6,85,75,63,29.67,29.40,9,4,9,0.14
2013-1-14,56.7,37.1,31.6,46.7,25.4,17.9,84,63,43,29.96,29.35,11,4,11,0.04
2013-1-15,37.8,30.2,23.7,20.1,15.9,10.7,63,55,40,30.01,29.88,5,3,5,0.00
2013-1-16,36.5,31.1,26.2,22.4,18.6,13.3,67,60,54,29.86,29.38,9,3,9,0.00
2013-1-17,34.7,14.9,-2.4,26.7,-5.1,-26.2,81,44,17,29.88,29.39,8,4,8,0.00
2013-1-18,24.6,10.3,-6.7,4.4,-10.4,-20.1,52,40,20,30.02,29.74,11,4,11,0.00
2013-1-19,46.2,38.7,25.7,28.2,22.8,4.3,69,53,35,29.66,29.23,12,6,17,0.00
2013-1-20,46.8,36.7,12.0,32.0,19.3,-8.8,78,51,31,29.66,28.95,17,9,24,0.04
2013-1-21,14.9,7.5,2.8,-5.9,-9.1,-12.1,53,46,37,29.70,29.48,7,2,7,0.00
2013-1-22,11.1,2.8,-3.3,-1.9,-14.8,-23.3,58,43,29,29.79,29.44,6,3,8,0.00
2013-1-23,4.1,-7.6,-13.5,-22.0,-28.4,-34.9,41,34,18,29.89,29.78,7,2,7,0.00
2013-1-24,8.6,-8.1,-12.8,-19.2,-27.0,-29.6,45,38,19,30.08,29.81,8,1,8,0.00
2013-1-25,15.4,4.7,-4.2,-6.7,-16.5,-22.0,52,37,23,30.08,29.77,4,2,4,0.00
2013-1-26,17.1,8.0,-5.1,0.9,-10.4,-19.4,58,43,29,29.99,29.75,5,2,5,0.00
2013-1-27,25.9,9.9,-3.1,-1.3,-10.4,-18.6,59,42,17,30.19,30.00,4,1,4,0.00
2013-1-28,29.5,24.3,18.3,21.2,9.6,-12.7,72,57,21,30.03,29.57,5,1,5,0.00
2013-1-29,47.1,27.8,17.4,43.4,18.6,8.2,87,68,56,29.76,29.43,4,2,4,0.07
2013-1-30,65.5,57.6,47.7,50.0,45.8,43.5,88,65,49,29.42,28.78,18,6,18,0.20
2013-1-31,54.3,34.9,19.6,48.1,19.1,0.4,82,53,36,29.21,28.51,18,11,24,0.78
2013-2-1,20.3,12.6,6.3,4.4,-4.2,-10.1,62,47,28,29.80,29.22,8,3,8,0.00
2013-2-2,20.5,12.6,3.0,9.5,-0.3,-11.3,63,56,47,29.82,29.62,8,2,8,0.34
2013-2-3,26.2,14.4,4.5,7.1,1.2,-6.7,63,56,40,29.63,29.42,4,1,4,0.00
2013-2-4,26.1,9.4,-6.9,4.7,-9.3,-22.0,66,44,19,29.58,29.42,11,2,11,0.00
2013-2-5,28.2,8.8,-12.8,-2.8,-16.0,-28.8,52,33,15,29.64,29.50,5,1,5,0.00
2013-2-6,24.6,17.4,0.5,16.7,-2.9,-20.6,73,43,18,30.03,29.46,7,3,7,0.00
2013-2-7,22.1,6.6,-0.8,-11.0,-15.4,-19.8,51,36,20,30.19,29.96,5,3,5,0.00
2013-2-8,13.5,9.0,5.7,3.9,-2.5,-10.8,66,59,43,29.95,29.61,7,4,7,0.00
2013-2-9,23.9,9.0,-10.3,2.0,-7.8,-26.7,65,47,24,30.03,29.71,6,3,6,0.00
2013-2-10,45.1,12.7,-13.2,2.5,-11.8,-29.6,52,35,15,30.08,29.75,5,1,5,0.01
2013-2-11,44.4,33.9,21.9,34.6,21.2,1.4,80,60,37,29.73,29.20,11,4,11,0.18
2013-2-12,34.2,32.1,29.1,27.7,25.0,21.1,81,75,68,29.51,29.23,11,5,11,0.00
2013-2-13,36.5,29.3,16.9,23.7,19.0,-2.8,75,66,41,29.50,29.39,97,3,97,0.01
2013-2-14,43.2,32.6,25.2,24.2,17.9,14.6,71,56,34,29.55,29.42,5,1,5,0.01
2013-2-15,37.2,33.6,25.2,28.8,19.9,8.1,76,58,43,29.63,29.39,14,6,14,0.04
2013-2-16,32.0,17.7,0.1,10.9,-4.2,-16.2,59,40,19,29.71,29.61,4,1,4,0.00
2013-2-17,17.6,4.7,-9.8,-9.7,-15.6,-25.8,50,39,23,29.67,29.49,9,3,9,0.00
2013-2-18,26.4,9.9,-1.1,-6.6,-14.3,-18.5,45,34,17,29.88,29.68,5,3,5,0.00
2013-2-19,48.6,31.9,18.1,31.0,12.9,-13.5,79,49,22,29.69,29.23,8,2,8,0.31
2013-2-20,28.9,26.3,23.5,18.1,11.2,5.8,65,53,39,29.37,29.28,11,3,11,0.00
2013-3-8,45.5,33.7,20.1,18.3,14.8,11.6,69,47,28,30.01,29.93,6,2,6,0.00
2013-3-9,55.0,31.7,14.0,20.6,12.3,4.4,68,49,17,30.03,29.93,4,1,4,0.00
2013-3-10,61.9,46.6,25.0,17.7,13.1,7.0,66,29,13,29.91,29.66,8,2,10,0.00
2013-3-11,57.4,51.4,44.1,37.8,22.3,12.4,65,33,19,29.69,29.42,11,3,11,0.01
2013-3-12,49.3,41.5,35.8,41.7,35.6,28.3,90,80,71,29.49,29.35,17,4,17,0.27
2013-3-13,43.9,35.3,30.6,30.4,25.1,18.7,78,67,42,29.50,29.41,8,4,8,0.01
2013-3-14,29.8,20.2,14.2,21.5,5.6,-4.0,75,54,37,29.61,29.40,8,4,8,0.00
2013-3-15,37.2,23.7,11.5,24.9,9.7,-3.8,79,55,37,29.62,29.21,11,3,11,0.01
2013-3-16,27.3,17.6,4.5,10.1,-1.1,-9.7,64,45,25,29.59,29.47,4,2,4,0.00
2013-3-17,32.5,17.4,2.8,0.6,-6.8,-16.0,56,36,15,29.99,29.57,9,2,9,0.00
2013-3-18,39.7,24.3,1.6,10.2,-3.8,-14.1,54,32,15,30.05,29.60,7,2,9,0.00
2013-3-19,39.7,32.4,26.8,29.4,23.2,13.0,82,69,44,29.57,29.33,6,2,6,0.12
2013-3-20,36.1,27.5,20.3,23.1,15.8,12.1,71,62,46,29.39,29.32,9,3,9,0.04
2013-3-21,36.3,27.2,19.2,15.4,10.2,5.0,63,49,28,29.36,29.30,11,5,11,0.00
2013-3-22,32.9,27.0,22.8,18.0,14.2,10.4,73,59,39,29.44,29.28,8,3,8,0.04
2013-3-23,40.3,32.2,23.7,20.2,15.8,9.7,72,52,32,29.54,29.42,13,4,13,0.01
2013-3-24,41.2,33.3,24.1,20.9,17.9,13.6,67,53,40,29.58,29.47,7,2,7,0.00
2013-3-25,46.9,33.2,20.8,23.1,18.8,12.8,73,57,33,29.46,29.27,8,2,8,0.00
2013-3-26,50.4,37.7,26.4,26.9,18.0,9.3,72,48,19,29.50,29.34,6,2,6,0.00
2013-3-27,46.9,39.8,33.3,26.2,23.7,21.3,65,53,41,29.59,29.46,7,3,7,0.00
2013-3-30,45.5,38.9,35.2,20.0,18.0,17.3,48,43,33,29.87,29.81,4,2,4,0.00
2013-3-31,57.7,45.6,37.9,37.5,29.6,9.4,89,62,16,29.80,29.41,10,4,10,0.20
2013-4-1,41.5,30.5,21.4,36.8,13.1,3.2,83,50,31,29.76,29.42,14,6,14,0.06
2013-4-2,67.6,31.3,20.8,57.2,7.8,-4.0,70,38,24,29.94,29.72,12,6,12,5.40
2013-4-3,72.0,42.5,21.4,61.6,18.4,-4.4,80,42,17,30.14,29.92,14,4,14,0.00
2013-4-4,52.9,36.5,23.7,18.3,11.2,4.0,58,38,16,30.16,29.77,14,5,14,0.00
2013-4-5,41.9,35.9,26.4,32.3,18.0,5.5,76,49,28,29.96,29.71,10,4,10,0.01
2013-4-6,45.0,32.2,19.0,10.9,2.8,-6.8,57,32,15,30.20,29.97,7,2,7,0.00
2013-4-7,63.1,50.6,38.7,41.3,24.8,-0.6,65,39,17,30.01,29.57,14,6,19,0.01
2013-4-8,61.3,46.6,39.0,39.1,30.1,22.3,91,56,23,30.04,29.72,6,2,6,0.04
2013-4-9,48.6,43.5,37.0,42.3,39.4,34.9,97,86,69,29.96,29.62,11,2,11,0.28
2013-4-10,50.5,44.1,36.1,41.6,38.1,29.3,94,80,57,29.94,29.83,4,1,4,0.11
2013-4-11,40.1,33.6,27.7,28.4,16.6,7.6,81,51,31,30.07,29.88,5,2,5,0.00
2013-4-12,42.1,33.8,30.0,39.4,26.4,3.9,92,77,27,30.03,29.56,8,2,8,0.18
2013-4-13,45.5,41.1,37.6,37.4,34.1,29.7,89,76,62,29.76,29.61,12,6,12,0.01
2013-4-14,46.0,38.2,27.9,34.0,28.6,21.0,85,69,46,30.11,29.76,8,3,8,0.07
2013-4-15,70.9,48.8,25.7,37.6,28.5,20.0,84,50,22,30.18,29.99,11,3,11,0.00
2013-4-16,62.4,55.5,41.9,54.4,45.7,35.5,96,71,45,30.04,29.79,16,7,16,0.40
2013-4-17,57.7,45.0,33.4,41.8,30.2,21.8,95,61,27,30.24,30.06,7,2,7,0.00
2013-4-18,74.5,59.1,36.1,51.4,43.0,27.3,77,56,35,30.21,29.62,13,7,21,0.01
2013-4-19,77.7,63.5,41.9,57.6,50.9,33.9,91,64,40,29.64,29.27,17,8,21,0.31
2013-4-20,46.6,38.2,29.3,35.8,24.9,15.0,80,59,44,30.23,29.57,17,8,17,0.04
2013-4-21,49.3,36.9,23.7,20.9,10.6,1.2,70,37,15,30.55,30.25,8,2,8,0.00
2013-4-22,65.1,47.6,24.6,21.0,12.7,7.0,73,30,11,30.54,30.30,8,3,8,0.00
2013-4-23,69.4,53.4,34.7,37.2,20.9,9.7,66,33,10,30.30,29.93,9,3,9,0.00
2013-4-24,78.3,56.1,43.3,52.1,41.1,30.4,87,62,18,29.92,29.46,16,7,17,0.02
2013-4-25,57.2,44.0,36.1,38.3,29.0,18.6,94,61,22,30.17,29.66,15,5,15,0.04
2013-4-26,57.6,44.7,32.0,40.1,31.8,24.0,96,64,29,30.34,30.17,5,2,5,0.11
2013-4-27,63.7,45.1,27.9,37.2,30.6,24.4,92,62,29,30.34,30.18,5,1,5,0.00
2013-4-28,77.5,59.7,35.8,39.6,34.4,29.1,90,46,17,30.18,29.95,5,2,5,0.00
2013-4-29,62.8,58.2,51.1,45.3,42.1,35.5,71,56,40,30.01,29.96,11,3,11,0.00
2013-4-30,74.1,62.1,50.4,50.0,47.0,45.1,82,60,39,30.15,30.01,6,2,6,0.00
2013-5-1,85.3,65.5,48.2,47.4,42.8,32.5,90,52,17,30.28,30.16,7,2,7,0.00
2013-5-2,84.2,65.8,46.4,47.7,40.0,25.1,82,46,14,30.32,30.19,7,2,7,0.00
2013-5-3,82.9,68.1,57.0,48.7,35.8,27.1,66,34,15,30.28,30.15,6,2,6,0.00
2013-5-4,82.6,65.2,47.1,43.6,34.1,28.3,74,36,14,30.21,30.06,5,2,5,0.00
2013-5-5,85.6,65.5,46.4,46.7,38.6,29.2,85,45,14,30.10,29.97,4,1,4,0.00
2013-5-6,84.2,66.8,51.3,43.2,34.0,22.4,60,34,11,30.07,29.92,4,2,4,0.00
2013-5-7,85.6,66.4,45.9,50.4,43.0,36.0,80,48,20,30.01,29.91,8,2,8,0.00
2013-5-8,83.1,65.3,48.6,60.2,50.2,33.9,96,64,18,29.99,29.87,7,1,7,0.14
2013-5-9,76.5,63.4,49.5,59.7,53.0,48.6,100,72,43,29.87,29.75,3,1,3,0.00
2013-5-10,73.0,61.9,52.9,58.9,54.9,51.2,95,79,55,29.88,29.64,8,1,8,0.01
2013-5-11,61.7,55.8,46.9,59.1,51.5,43.9,97,86,73,29.63,29.50,11,4,11,0.74
2013-5-12,55.0,45.2,35.1,45.3,35.6,27.0,90,72,38,29.65,29.52,13,6,13,0.05
2013-5-13,51.4,42.1,34.7,38.9,31.3,27.8,86,66,47,29.93,29.64,11,5,11,0.02
2013-5-14,60.3,46.3,33.1,33.8,28.5,20.1,81,54,21,30.00,29.90,4,2,4,0.00
2013-5-15,68.0,52.8,32.2,52.2,37.3,22.3,80,58,27,29.91,29.39,7,3,7,0.00
2013-5-16,72.1,58.8,46.0,44.6,39.1,34.4,68,50,27,29.85,29.51,10,5,10,0.00
2013-5-17,70.3,55.3,40.8,43.9,38.2,25.6,92,58,20,30.11,29.86,6,2,6,0.00
2013-5-18,81.1,60.4,41.5,45.4,37.5,27.4,84,49,14,30.18,30.08,5,1,5,0.00
2013-5-19,68.2,58.9,47.1,55.8,50.3,39.9,89,74,53,30.11,29.91,5,1,5,0.02
2013-5-20,73.9,64.9,59.9,61.9,58.3,54.6,93,80,60,29.94,29.83,5,1,5,0.06
2013-5-21,68.9,61.8,55.9,61.6,58.1,54.7,100,88,67,29.84,29.64,5,1,5,0.66
2013-5-22,84.2,68.6,57.0,67.5,62.8,56.4,100,84,55,29.72,29.50,11,1,11,0.59
2013-5-23,75.4,65.8,48.7,66.1,60.2,46.5,97,83,61,29.72,29.58,8,3,8,0.19
2013-5-24,47.3,44.4,41.9,45.8,42.7,39.8,97,94,86,29.99,29.71,6,2,6,0.47
2013-5-25,52.3,45.9,41.7,42.7,39.9,36.3,96,81,56,30.01,29.94,8,2,8,0.11
2013-5-26,66.0,50.1,42.4,43.0,39.2,26.7,95,72,26,29.99,29.89,9,3,9,0.15
2013-5-27,72.9,57.8,40.5,42.1,35.9,24.0,91,51,16,30.10,29.98,4,2,8,0.00
2013-5-28,81.7,61.5,41.5,53.2,40.9,31.6,83,52,17,30.07,29.91,4,1,4,0.00
2013-5-29,78.3,66.6,57.0,67.3,59.9,46.8,94,79,62,29.90,29.77,8,2,8,0.13
2013-5-30,86.4,72.9,61.2,67.1,63.3,59.7,95,74,48,29.98,29.87,6,2,6,0.00
2013-5-31,92.5,76.7,64.6,68.3,62.5,57.8,91,65,35,29.94,29.81,6,3,6,0.06
2013-6-1,88.2,76.1,68.0,68.3,64.3,60.2,94,69,45,29.83,29.64,7,3,7,0.50
2013-6-2,77.4,70.4,64.6,68.5,64.1,56.7,97,82,53,29.67,29.55,8,3,8,0.67
2013-6-3,64.4,57.5,50.2,57.8,47.6,40.6,87,70,52,29.80,29.66,8,4,8,0.00
2013-6-4,72.7,56.9,45.5,44.4,41.8,37.7,85,60,28,30.03,29.80,6,2,6,0.00
2013-6-5,73.9,56.1,40.3,50.3,40.9,35.9,96,62,27,30.12,30.02,4,1,4,0.00
2013-6-6,59.2,54.1,50.4,52.3,48.4,39.3,95,81,58,30.04,29.89,2,0,2,0.25
2013-6-7,61.3,56.8,52.7,58.1,54.8,51.3,100,93,87,29.88,29.74,1,0,1,0.35
2013-6-8,61.9,57.5,54.1,57.0,54.9,52.5,100,91,79,29.93,29.69,3,0,3,0.01
2013-6-9,79.5,65.8,56.8,59.7,55.7,53.6,90,72,44,30.08,29.92,4,2,4,0.00
2013-6-10,77.2,64.9,53.2,58.9,55.1,51.5,96,74,45,30.08,29.76,4,1,4,0.30
2013-6-11,60.4,58.6,54.5,59.0,57.4,52.8,100,96,93,29.74,29.49,4,1,4,1.05
2013-6-12,77.9,62.1,54.0,58.4,54.0,51.2,100,78,40,29.77,29.63,4,1,4,0.02
2013-6-13,70.9,60.3,53.1,61.3,56.9,51.3,96,89,58,29.72,29.55,3,0,4,0.73
2013-6-14,79.2,61.3,48.7,61.6,50.8,40.1,100,73,30,30.17,29.62,5,1,7,3.53
2013-6-15,78.1,64.6,43.2,53.0,45.4,41.4,97,54,29,30.08,29.99,5,2,9,0.00
2013-6-16,65.8,59.9,53.8,61.7,53.8,44.6,96,81,58,30.00,29.77,3,0,6,0.37
2013-6-17,69.4,62.0,52.9,60.5,56.3,48.4,97,82,62,30.05,29.85,5,2,5,0.01
2013-6-18,79.3,59.1,45.1,55.2,46.9,43.0,97,69,29,30.12,30.03,5,1,5,0.00
2013-6-19,75.7,56.5,39.7,49.6,41.2,34.5,97,64,24,30.28,30.13,3,1,3,0.00
2013-6-20,79.5,62.3,47.3,50.4,45.8,41.6,90,60,26,30.34,30.28,4,2,4,0.00
2013-6-21,84.2,68.4,56.8,57.4,49.8,43.3,83,53,30,30.36,30.28,3,1,3,0.00
2013-6-22,79.5,67.8,59.2,67.0,62.9,55.4,95,85,59,30.29,30.13,3,0,3,0.07
2013-6-23,84.6,71.2,60.1,73.0,66.5,59.0,96,86,64,30.17,30.04,4,1,6,0.00
2013-6-24,88.5,79.1,70.2,73.2,68.2,64.5,86,70,52,30.09,29.96,5,3,14,0.00
2013-6-25,85.1,74.6,68.5,72.1,65.9,61.6,93,75,61,30.25,29.84,5,3,8,0.70
2013-6-26,81.7,71.9,66.0,69.3,66.7,64.5,95,84,65,29.95,29.91,4,2,4,0.00
2013-6-27,85.5,74.4,66.9,69.6,66.3,63.9,91,77,55,29.95,29.86,4,1,4,0.00
2013-6-28,68.2,60.0,56.1,64.2,58.1,55.0,97,93,87,29.84,29.66,2,1,2,0.77
2013-6-29,76.1,65.0,59.2,64.4,60.7,58.0,96,87,60,29.86,29.67,3,1,3,0.04
2013-6-30,83.1,69.4,60.8,64.1,60.6,58.6,94,76,48,30.11,29.85,4,1,4,0.00
2013-7-1,75.0,65.4,58.8,62.8,59.4,56.4,94,82,63,30.26,30.12,3,1,3,0.07
2013-7-2,81.1,66.4,57.7,68.7,61.4,55.7,96,85,61,30.26,30.22,3,1,3,0.07
2013-7-3,84.6,71.8,63.9,72.3,66.9,62.1,96,86,60,30.34,30.25,4,1,4,0.00
2013-7-4,84.2,75.3,68.0,76.2,69.3,65.9,94,82,62,30.33,30.24,13,2,13,0.18
2013-7-5,88.7,76.7,69.6,71.3,68.5,65.4,87,76,53,30.30,30.19,4,2,4,0.00
2013-7-6,87.8,76.2,67.5,68.6,64.8,57.4,87,70,45,30.27,30.18,4,2,4,0.00
2013-7-7,81.9,74.0,67.8,71.3,66.5,61.2,85,78,64,30.21,30.08,4,1,4,0.00
2013-7-8,81.5,71.0,66.4,69.2,66.2,64.6,95,86,60,30.22,30.09,3,0,3,0.66
2013-7-9,92.5,75.6,64.0,72.8,67.8,62.3,96,79,43,30.23,30.09,3,0,3,0.09
2013-7-10,82.4,75.4,69.3,72.5,69.1,66.7,93,81,67,30.08,29.85,8,3,8,0.46
2013-7-11,84.4,71.1,61.7,68.2,60.9,53.8,94,73,39,30.22,29.90,3,1,3,0.00
2013-7-12,86.4,68.3,54.3,60.4,57.3,52.6,95,72,37,30.36,30.22,3,1,3,0.00
2013-7-13,92.7,72.0,55.2,70.1,61.8,53.5,95,74,35,30.43,30.36,4,0,4,0.00
2013-7-14,93.2,77.8,69.6,70.7,68.5,66.1,90,75,45,30.48,30.40,3,1,3,0.00
2013-7-15,93.2,78.4,68.2,70.7,66.5,62.2,88,70,39,30.43,30.35,4,1,4,0.00
2013-7-16,97.2,79.7,68.7,73.7,67.9,64.7,89,70,37,30.42,30.34,2,1,2,0.00
2013-7-17,92.7,79.5,70.5,74.2,69.8,64.9,90,73,52,30.36,30.17,5,2,5,0.00
2013-7-18,92.7,75.2,69.4,75.2,69.8,67.4,94,85,54,30.21,30.07,4,1,4,0.48
2013-7-19,92.1,78.4,68.4,75.1,70.3,65.7,95,78,50,30.08,29.80,15,4,15,0.34
2013-7-20,86.9,73.2,63.3,71.1,64.7,57.6,94,77,40,30.01,29.83,8,3,8,0.30
2013-7-21,82.2,65.5,54.0,60.1,53.8,49.6,93,70,33,30.20,30.02,4,1,4,0.01
2013-7-22,87.1,66.5,49.5,61.7,54.7,48.6,97,70,33,30.20,29.97,2,1,2,0.00
2013-7-23,87.8,74.0,64.9,67.9,64.1,60.4,92,73,46,29.96,29.72,4,2,4,0.00
2013-7-24,68.7,60.4,49.5,65.3,51.9,46.4,93,74,55,30.20,29.74,4,2,4,0.08
2013-7-25,80.2,60.5,45.7,57.7,47.9,43.2,100,68,27,30.32,30.21,4,1,4,0.00
2013-7-26,85.5,62.5,45.1,58.4,51.8,43.5,100,73,33,30.29,30.19,4,1,4,0.00
2013-7-27,92.8,69.2,51.6,64.9,57.6,50.4,96,71,32,30.19,30.05,4,1,4,0.08
2013-7-28,77.5,68.0,62.6,67.9,64.5,60.8,95,89,71,30.13,30.03,3,1,3,0.35
2013-7-29,76.6,63.8,55.4,61.9,56.7,49.5,96,80,47,30.26,30.13,5,2,5,0.26
2013-7-30,79.7,65.5,56.7,60.4,57.6,55.4,97,78,47,30.31,30.25,4,2,4,0.00
2013-7-31,84.2,68.8,58.8,62.1,58.8,56.2,93,73,41,30.29,30.15,4,1,4,0.00
2013-8-1,77.0,68.4,63.7,67.6,62.3,56.6,94,82,60,30.14,29.91,8,1,8,0.22
2013-8-2,79.9,67.6,60.1,61.9,59.3,56.3,95,76,47,30.01,29.95,6,2,6,0.00
2013-8-3,72.9,64.3,57.7,60.5,58.4,56.3,96,82,59,30.03,29.93,4,2,4,0.30
2013-8-4,73.4,60.8,51.8,59.3,55.9,50.4,97,85,53,30.17,30.01,5,1,5,0.08
2013-8-5,79.7,60.3,46.0,57.2,49.6,43.2,100,73,32,30.25,30.17,3,1,3,0.01
2013-8-6,85.8,66.1,52.7,59.2,52.8,48.2,88,66,29,30.25,30.20,4,1,4,0.00
2013-8-7,81.7,69.9,61.2,64.6,59.0,53.3,85,69,47,30.22,30.06,9,3,9,0.02
2013-8-8,87.8,74.6,67.6,69.1,65.8,62.6,92,75,48,30.14,30.05,5,2,5,0.00
2013-8-9,78.8,71.5,66.7,69.8,67.2,61.4,95,87,72,30.08,29.95,4,1,4,0.02
2013-8-10,77.0,65.6,58.1,61.2,53.8,49.1,90,68,41,30.21,30.00,4,2,4,0.00
2013-8-11,81.1,65.7,55.0,56.7,54.1,50.1,93,69,34,30.26,30.17,4,2,4,0.00
2013-8-12,79.9,67.3,58.8,58.1,54.9,51.2,89,67,44,30.18,30.02,4,2,4,0.00
2013-8-13,77.9,64.9,56.3,64.5,59.9,52.5,94,84,58,30.02,29.84,5,1,5,0.27
2013-8-14,68.4,58.5,52.5,59.3,53.5,50.8,97,84,63,30.15,29.89,4,2,4,0.38
2013-8-15,76.6,61.5,50.4,56.9,52.0,48.7,96,74,42,30.25,30.16,7,3,7,0.00
2013-8-16,80.2,63.9,54.5,60.9,57.1,51.8,93,80,41,30.38,30.23,4,1,4,0.00
2013-8-17,86.0,61.1,50.9,61.9,55.0,49.8,96,83,35,30.47,30.38,3,0,3,0.00
2013-8-18,85.1,68.9,52.2,61.0,54.9,50.8,95,66,34,30.42,30.25,4,1,4,0.00
2013-8-19,86.5,76.5,59.9,62.9,58.9,55.9,89,57,39,30.26,30.15,5,2,6,0.00
2013-8-20,87.6,78.0,62.1,65.5,62.1,56.7,89,60,44,30.25,30.17,5,3,8,0.00
2013-8-21,87.4,73.9,63.3,67.4,62.9,59.1,86,70,49,30.30,30.15,6,2,6,0.00
2013-8-22,77.4,69.8,63.7,68.3,63.3,59.2,96,81,66,30.16,30.02,8,2,8,0.59
2013-8-23,82.0,62.3,52.2,61.0,55.2,50.2,100,81,36,30.38,30.12,2,0,2,0.00
2013-8-24,84.7,60.2,45.3,57.6,50.4,43.7,100,75,31,30.52,30.38,3,0,3,0.00
2013-8-25,81.3,63.9,50.4,59.0,53.5,49.3,96,72,36,30.51,30.26,3,1,3,0.00
2013-8-26,76.6,69.5,64.9,69.3,64.9,59.0,96,85,78,30.25,30.05,6,3,6,0.33
2013-8-27,77.0,69.6,64.2,70.4,67.1,62.5,96,92,79,30.10,30.03,2,0,2,0.00
2013-8-28,92.8,71.9,60.6,71.1,64.6,59.5,96,81,42,30.12,30.04,3,1,3,0.00
2013-8-29,87.3,69.7,62.1,66.7,64.0,59.9,96,84,47,30.23,30.12,2,1,2,0.00
2013-8-30,86.9,70.8,59.5,68.8,63.5,58.1,95,79,52,30.16,29.94,8,2,8,0.01
2013-8-31,74.8,68.9,64.9,68.4,66.0,63.2,95,91,80,30.00,29.91,2,0,2,0.04
2013-9-1,92.3,71.7,62.4,67.7,64.6,61.0,95,80,42,30.04,29.94,3,0,3,0.00
2013-9-2,78.6,69.6,64.9,70.5,66.2,63.8,96,89,73,29.95,29.82,2,1,2,0.59
2013-9-3,76.5,63.9,57.7,64.0,57.5,55.9,95,81,52,30.01,29.88,7,2,7,0.00
2013-9-4,69.4,61.5,56.5,59.7,56.8,53.6,94,85,69,30.10,30.01,7,2,7,0.00
2013-9-5,69.1,55.0,41.7,55.8,45.4,36.3,96,74,35,30.36,30.09,4,1,4,0.00
2013-9-6,73.2,54.4,37.9,48.3,42.3,37.4,100,68,34,30.41,30.21,8,3,8,0.00
2013-9-7,68.9,61.5,56.7,59.7,53.5,48.2,94,75,63,30.21,30.01,6,3,6,0.02
2013-9-8,69.6,55.0,41.5,58.5,43.2,35.5,96,68,29,30.28,29.99,4,2,6,0.09
2013-9-9,74.7,54.4,38.3,56.1,45.6,38.1,100,76,37,30.33,30.14,5,1,10,0.00
2013-9-10,76.6,67.0,20.8,71.5,62.9,1.7,96,87,39,30.17,29.93,4,2,8,6.14
2013-9-11,91.6,80.7,63.3,73.6,70.1,55.3,95,71,49,30.01,29.81,6,3,10,1.63
2013-9-12,71.8,69.5,61.3,69.4,67.0,58.9,97,92,83,29.82,29.59,4,3,10,1.00
2013-9-13,62.1,51.6,47.7,60.6,49.3,47.1,100,92,82,29.88,29.62,4,1,4,0.05
2013-9-14,67.6,52.1,44.8,47.0,44.6,40.4,100,79,41,30.01,29.88,4,2,4,0.00
2013-9-15,68.4,56.8,47.7,55.2,49.7,44.9,94,78,59,30.03,29.95,8,3,8,0.09
2013-9-16,62.4,49.0,36.7,52.1,43.6,34.0,100,84,37,30.30,29.95,4,1,4,0.21
2013-9-17,71.8,46.3,33.3,47.0,40.1,31.9,96,83,28,30.41,30.24,3,1,3,0.00
2013-9-18,78.8,48.9,42.8,51.4,43.3,40.4,94,84,31,30.23,30.05,4,1,4,0.00
2013-9-19,83.1,60.7,44.4,58.0,51.1,43.1,96,74,35,30.05,29.96,5,1,5,0.00
2013-10-3,79.2,60.1,48.4,51.9,48.8,45.4,91,69,34,30.06,29.96,4,1,4,0.00
2013-10-4,59.4,54.6,45.5,54.6,49.5,43.9,100,83,75,30.02,29.97,2,0,2,0.00
2013-10-5,66.7,57.3,50.5,48.3,43.5,33.4,82,63,32,30.07,30.00,4,1,7,0.00
2013-10-6,65.7,54.7,47.5,61.0,49.4,38.5,95,83,67,30.04,29.75,7,2,7,0.25
2013-10-7,77.2,63.0,51.1,60.3,55.3,43.1,95,77,51,29.84,29.49,12,6,24,0.61
2013-10-8,56.1,45.2,37.6,42.7,39.6,35.7,96,82,51,30.28,29.87,5,2,5,0.00
2013-10-9,77.0,50.1,36.9,44.1,38.9,30.2,100,73,18,30.36,30.23,4,1,4,0.00
2013-10-10,74.5,47.7,36.7,53.9,40.2,26.9,100,78,29,30.24,29.15,3,0,6,0.03
2013-10-11,85.3,51.0,33.4,54.5,40.4,23.7,100,74,17,30.11,29.14,6,1,12,0.11
2013-10-12,81.7,45.2,22.6,51.5,36.0,14.3,100,73,29,30.19,29.28,5,1,8,0.28
2013-10-13,83.1,45.3,19.8,53.9,31.9,6.3,90,61,32,30.26,29.59,5,2,5,0.30
2013-10-14,67.3,43.3,16.0,57.0,33.7,1.5,95,70,39,30.22,29.41,7,3,13,0.14
2013-10-15,72.9,47.9,32.7,54.9,35.0,12.3,100,65,27,30.22,29.42,11,2,12,0.01
2013-10-16,68.7,53.3,39.0,55.7,36.2,14.5,93,54,29,29.92,29.47,10,3,12,0.18
2013-10-17,62.1,52.6,37.6,55.8,38.7,19.7,94,62,26,29.77,29.47,8,2,8,0.24
2013-10-18,63.0,54.6,49.5,52.0,45.9,37.5,96,74,48,29.81,28.75,11,4,14,0.02
2013-10-19,63.1,47.4,29.5,46.9,35.5,14.4,94,65,44,29.81,28.82,13,4,17,0.12
2013-10-20,61.0,42.4,15.3,45.7,29.3,6.6,91,62,39,29.99,29.39,11,4,11,0.06
2013-10-21,64.4,52.0,14.5,41.3,32.2,4.5,93,49,26,30.07,29.68,14,4,14,0.00
2013-10-22,60.6,45.4,18.9,48.0,31.1,1.2,94,60,17,29.96,29.60,12,5,17,0.25
2013-10-23,50.9,42.4,27.9,40.1,31.7,16.5,93,67,45,29.67,29.31,8,2,10,0.24
2013-10-24,44.8,30.2,11.8,36.5,21.4,-0.2,89,70,48,29.84,29.26,9,2,9,0.02
2013-10-25,48.4,27.7,6.1,31.8,14.6,-14.9,89,59,21,30.40,29.56,4,1,4,0.00
2013-10-26,46.2,33.4,5.7,32.4,17.7,-7.8,81,54,29,30.48,29.51,8,3,12,0.01
2013-10-27,55.6,36.0,23.7,28.5,21.1,7.1,81,60,15,30.50,29.05,7,1,10,0.01
2013-10-28,57.7,35.7,14.5,36.2,19.1,5.6,82,56,16,30.43,28.95,10,2,10,0.08
2013-10-29,44.6,25.7,-2.7,37.5,16.1,-14.2,99,68,31,30.08,29.43,149,4,149,0.01
2013-10-30,34.5,17.5,-2.9,13.5,-0.4,-14.4,67,47,24,30.22,29.95,12,3,12,0.00
2013-10-31,72.0,33.3,1.0,61.6,19.6,-11.4,83,59,26,30.43,29.59,12,2,12,5.40
2013-11-1,64.0,49.1,0.0,57.1,39.4,21.6,87,67,52,29.97,29.40,21,8,24,0.52
2013-11-2,51.8,36.8,30.9,44.1,30.6,22.6,89,78,64,30.32,29.32,7,2,8,0.18
2013-11-3,43.7,30.6,21.2,28.4,15.9,0.9,82,56,21,30.86,29.37,7,0,7,0.14
2013-11-4,47.5,33.2,17.2,37.8,14.2,3.0,83,51,17,31.03,29.28,5,2,8,0.06
2013-11-5,60.3,47.1,32.9,47.3,26.8,8.8,85,47,22,30.89,29.17,8,3,14,0.07
2013-11-6,62.2,46.4,26.1,47.7,32.7,8.1,78,59,38,30.69,29.46,15,4,25,0.08
2013-11-7,57.2,44.1,22.1,50.8,36.1,4.6,89,74,38,30.26,29.72,12,4,19,0.34
2013-11-8,37.2,31.7,22.5,27.4,17.8,8.2,77,56,36,30.50,29.49,8,2,8,0.00
2013-11-9,39.7,33.1,25.3,32.9,22.4,7.0,82,65,42,30.54,29.20,8,3,12,0.15
2013-11-10,44.4,31.5,16.3,39.0,18.3,-3.6,85,60,30,30.35,29.27,12,4,12,0.18
2013-11-11,43.2,25.7,-2.9,33.8,15.3,-20.3,85,66,9,30.44,29.48,8,2,11,0.28
2013-11-12,39.6,23.4,-2.2,32.0,11.6,-15.9,75,60,26,30.67,29.33,6,2,8,0.30
2013-11-13,34.2,20.8,-11.7,22.9,5.1,-28.5,69,51,22,30.69,29.41,13,4,15,0.00
2013-11-14,46.9,35.7,-7.8,31.2,20.4,-23.9,65,54,31,30.36,29.57,10,5,14,0.01
2013-11-15,53.6,24.2,-6.3,22.9,5.3,-19.8,63,47,27,30.41,29.05,12,3,12,0.00
2013-11-16,60.4,36.1,-11.0,38.4,19.7,-26.1,93,54,26,30.58,29.21,7,2,7,0.38
2013-11-17,73.8,56.1,37.2,58.1,45.8,29.9,89,69,50,30.47,29.39,12,3,14,0.07
2013-11-18,79.9,51.0,32.2,62.8,38.1,22.9,93,62,44,30.04,29.20,17,8,25,0.32
2013-11-19,77.9,44.9,19.6,64.5,34.7,9.2,97,68,45,30.77,29.14,8,3,8,0.40
2013-11-20,68.4,33.6,14.5,59.3,23.6,5.9,96,68,26,30.96,29.24,4,1,4,0.21
2013-11-21,76.6,38.9,18.9,55.6,21.3,1.2,93,51,17,30.90,29.47,11,2,11,0.00
2013-11-22,80.2,44.4,32.2,60.9,39.3,24.8,95,83,41,30.62,29.58,11,2,40,0.32
2013-11-23,86.0,34.0,18.0,61.0,23.4,1.5,95,65,35,30.40,29.69,2,0,3,0.00
2013-11-24,85.1,28.5,8.6,60.8,9.6,-14.7,89,47,21,30.67,29.51,3,0,5,0.00
2013-11-25,86.0,34.3,5.7,63.3,17.5,-7.8,89,50,29,30.70,29.44,10,3,14,0.00
2013-11-26,87.4,42.6,31.8,65.1,30.4,6.1,86,63,32,30.50,29.51,10,2,11,0.00
2013-11-27,87.4,43.0,20.8,67.4,35.7,13.5,82,76,49,30.20,29.38,4,0,8,0.12
2013-11-28,77.4,33.6,2.5,68.3,26.3,-7.6,99,74,43,30.77,29.32,6,0,6,0.01
2013-11-29,82.0,24.4,-2.9,59.7,13.4,-14.4,98,64,36,31.09,29.56,2,0,2,0.00
2013-11-30,84.7,28.6,-1.7,58.5,16.4,-14.3,96,61,31,31.09,29.75,2,0,3,0.00
2013-12-1,81.3,51.1,22.8,63.7,41.1,15.5,87,70,36,30.55,29.45,4,1,6,0.02
2013-12-2,76.6,42.4,30.9,69.3,37.4,25.8,96,82,78,30.34,29.34,4,0,5,0.31
2013-12-3,77.0,38.9,24.6,70.4,33.3,18.7,96,80,71,30.38,29.33,2,0,2,0.14
2013-12-4,92.8,35.5,21.2,69.4,27.9,14.9,96,74,42,30.47,29.33,3,0,4,0.04
2013-12-5,87.3,56.4,29.1,66.7,47.8,23.7,95,74,47,30.35,29.39,11,4,15,0.08
2013-12-6,86.9,55.2,30.7,68.8,46.7,18.9,95,74,52,30.51,29.20,9,2,9,0.09
2013-12-7,74.8,37.9,23.7,68.4,23.7,4.2,95,58,37,30.82,29.22,5,2,8,0.04
2013-12-8,92.3,54.6,22.1,67.7,44.1,4.6,95,69,36,30.90,29.19,4,1,4,0.08
2013-12-9,78.6,48.6,25.5,70.5,41.2,8.7,96,76,45,30.68,29.11,12,3,12,0.15
2013-12-10,76.5,43.0,16.5,59.3,29.1,-3.6,90,59,30,30.28,29.20,12,3,12,0.00
2013-12-11,69.4,39.8,9.1,59.7,29.5,-8.0,96,68,34,30.56,29.35,11,2,11,0.00
2013-12-12,69.1,22.2,-3.5,46.8,8.9,-17.1,98,58,26,30.63,29.54,8,2,8,0.00
2013-12-13,73.2,34.8,-10.3,52.8,18.5,-27.1,74,52,20,30.79,29.42,7,2,8,0.00
2013-12-14,68.9,33.7,-11.7,59.7,24.0,-28.5,96,68,37,30.89,29.28,4,2,6,0.12
2013-12-15,69.3,37.0,8.6,47.2,26.9,-3.5,98,69,30,30.06,29.44,4,1,5,0.00
2013-12-16,74.1,22.8,-11.0,64.0,6.0,-26.1,96,50,23,30.50,29.35,4,2,5,0.74
2013-12-17,76.5,55.5,32.5,71.4,41.7,9.3,95,64,19,29.40,29.26,5,1,5,0.00
2013-12-18,46.9,38.9,32.7,26.2,23.2,19.8,67,54,41,29.43,29.27,7,2,7,0.00
2013-12-19,48.4,39.6,32.0,32.4,28.5,22.4,81,65,50,29.56,29.41,4,1,4,0.01
2013-12-20,46.2,38.3,28.0,31.1,26.7,21.1,78,64,45,29.59,29.53,5,2,5,0.00
2013-12-21,55.6,40.2,23.7,27.1,15.4,7.1,80,42,15,29.61,29.48,7,1,7,0.00
2013-12-22,57.7,44.7,34.9,37.5,24.9,9.4,89,53,16,29.47,29.02,10,3,10,0.15
2013-12-23,42.3,35.2,24.8,37.1,20.0,3.2,84,56,31,29.28,28.98,14,5,14,0.11
2013-12-24,34.5,27.7,21.4,13.5,4.4,-4.0,67,38,24,29.41,29.27,12,5,12,0.00
2013-12-25,24.8,10.9,6.3,8.0,-2.9,-7.1,57,53,39,29.91,29.42,4,0,4,0.00
2013-12-26,28.4,14.9,8.2,20.2,4.4,-3.8,72,62,57,29.69,29.50,0,0,0,0.00
2013-12-27,27.9,24.5,21.6,18.0,16.0,13.0,73,70,65,29.65,29.51,0,0,0,0.00
2013-12-28,35.6,34.2,25.7,28.6,26.1,16.9,77,72,66,29.50,29.37,11,4,11,0.05
2013-12-29,43.5,36.1,29.1,32.5,27.1,23.7,80,71,50,29.39,29.01,6,2,6,0.00
2013-12-30,37.8,8.6,-3.3,29.9,-7.6,-19.5,73,48,25,29.67,29.02,9,3,9,0.00
2013-12-31,17.6,10.4,-0.2,6.6,-4.3,-15.7,64,51,37,29.63,29.36,5,2,7,0.00
2014-1-1,12.4,2.5,-7.6,1.1,-15.8,-27.0,61,42,23,29.90,29.58,6,2,6,0.00
2014-1-2,-8.1,-11.4,-12.5,-27.4,-29.5,-35.4,43,39,25,29.87,29.52,6,3,11,0.00